sensor_id;sensor_type;location;lat;lon;timestamp;P1;durP1;ratioP1;P2;durP2;ratioP2
74945;SDS011;63509;45.250;38.102;2023-02-15T00:00:23;6.05;;;3.22;;
74945;SDS011;63509;45.250;38.102;2023-02-15T00:02:49;8.25;;;3.88;;
74945;SDS011;63509;45.250;38.102;2023-02-15T00:05:15;7.07;;;3.67;;
74945;SDS011;63509;45.250;38.102;2023-02-15T00:07:41;7.47;;;3.70;;
74945;SDS011;63509;45.250;38.102;2023-02-15T00:10:07;8.90;;;4.13;;
74945;SDS011;63509;45.250;38.102;2023-02-15T00:12:34;7.05;;;3.55;;
74945;SDS011;63509;45.250;38.102;2023-02-15T00:15:00;8.82;;;3.17;;
74945;SDS011;63509;45.250;38.102;2023-02-15T00:17:27;6.65;;;3.75;;
74945;SDS011;63509;45.250;38.102;2023-02-15T00:19:53;8.00;;;3.40;;
74945;SDS011;63509;45.250;38.102;2023-02-15T00:22:19;8.55;;;3.28;;
74945;SDS011;63509;45.250;38.102;2023-02-15T00:24:46;10.05;;;3.15;;
74945;SDS011;63509;45.250;38.102;2023-02-15T00:27:12;10.80;;;4.15;;
74945;SDS011;63509;45.250;38.102;2023-02-15T00:29:38;6.45;;;3.17;;
74945;SDS011;63509;45.250;38.102;2023-02-15T00:32:04;10.10;;;4.90;;
74945;SDS011;63509;45.250;38.102;2023-02-15T00:34:31;10.40;;;3.55;;
74945;SDS011;63509;45.250;38.102;2023-02-15T00:36:57;9.30;;;3.63;;
74945;SDS011;63509;45.250;38.102;2023-02-15T00:39:23;11.85;;;4.28;;
74945;SDS011;63509;45.250;38.102;2023-02-15T00:41:49;8.95;;;4.60;;
74945;SDS011;63509;45.250;38.102;2023-02-15T00:44:16;7.55;;;3.30;;
74945;SDS011;63509;45.250;38.102;2023-02-15T00:46:43;9.48;;;3.50;;
74945;SDS011;63509;45.250;38.102;2023-02-15T00:49:09;7.80;;;3.83;;
74945;SDS011;63509;45.250;38.102;2023-02-15T00:51:36;10.40;;;4.63;;
74945;SDS011;63509;45.250;38.102;2023-02-15T00:54:03;10.85;;;5.05;;
74945;SDS011;63509;45.250;38.102;2023-02-15T00:56:29;11.23;;;5.63;;
74945;SDS011;63509;45.250;38.102;2023-02-15T00:58:55;12.55;;;4.97;;
74945;SDS011;63509;45.250;38.102;2023-02-15T01:01:21;12.88;;;5.10;;
74945;SDS011;63509;45.250;38.102;2023-02-15T01:03:50;10.63;;;4.47;;
74945;SDS011;63509;45.250;38.102;2023-02-15T01:06:16;10.77;;;4.60;;
74945;SDS011;63509;45.250;38.102;2023-02-15T01:08:43;11.57;;;5.82;;
74945;SDS011;63509;45.250;38.102;2023-02-15T01:11:13;11.35;;;6.03;;
74945;SDS011;63509;45.250;38.102;2023-02-15T01:13:56;14.10;;;6.30;;
74945;SDS011;63509;45.250;38.102;2023-02-15T01:16:24;20.00;;;6.20;;
74945;SDS011;63509;45.250;38.102;2023-02-15T01:18:52;9.63;;;4.15;;
74945;SDS011;63509;45.250;38.102;2023-02-15T01:21:20;9.70;;;4.72;;
74945;SDS011;63509;45.250;38.102;2023-02-15T01:23:48;14.30;;;4.95;;
74945;SDS011;63509;45.250;38.102;2023-02-15T01:26:14;13.38;;;5.80;;
74945;SDS011;63509;45.250;38.102;2023-02-15T01:28:42;13.05;;;3.85;;
74945;SDS011;63509;45.250;38.102;2023-02-15T01:31:13;7.82;;;4.18;;
74945;SDS011;63509;45.250;38.102;2023-02-15T01:33:41;8.80;;;4.60;;
74945;SDS011;63509;45.250;38.102;2023-02-15T01:36:08;14.13;;;5.97;;
74945;SDS011;63509;45.250;38.102;2023-02-15T01:38:35;17.25;;;6.55;;
74945;SDS011;63509;45.250;38.102;2023-02-15T01:41:01;18.35;;;6.38;;
74945;SDS011;63509;45.250;38.102;2023-02-15T01:43:52;12.98;;;6.22;;
74945;SDS011;63509;45.250;38.102;2023-02-15T01:46:22;11.20;;;6.18;;
74945;SDS011;63509;45.250;38.102;2023-02-15T01:48:56;10.13;;;5.40;;
74945;SDS011;63509;45.250;38.102;2023-02-15T01:51:30;12.32;;;5.25;;
74945;SDS011;63509;45.250;38.102;2023-02-15T01:53:59;9.52;;;4.80;;
74945;SDS011;63509;45.250;38.102;2023-02-15T01:56:31;14.57;;;4.88;;
74945;SDS011;63509;45.250;38.102;2023-02-15T02:01:40;11.00;;;5.43;;
74945;SDS011;63509;45.250;38.102;2023-02-15T02:06:42;14.20;;;5.13;;
74945;SDS011;63509;45.250;38.102;2023-02-15T02:09:12;13.40;;;5.55;;
74945;SDS011;63509;45.250;38.102;2023-02-15T02:11:40;6.95;;;3.50;;
74945;SDS011;63509;45.250;38.102;2023-02-15T02:14:11;11.50;;;3.63;;
74945;SDS011;63509;45.250;38.102;2023-02-15T02:34:14;12.88;;;3.58;;
74945;SDS011;63509;45.250;38.102;2023-02-15T02:37:17;4.97;;;2.83;;
74945;SDS011;63509;45.250;38.102;2023-02-15T02:42:37;8.52;;;3.80;;
74945;SDS011;63509;45.250;38.102;2023-02-15T02:45:09;15.10;;;4.30;;
74945;SDS011;63509;45.250;38.102;2023-02-15T02:47:45;5.93;;;2.67;;
74945;SDS011;63509;45.250;38.102;2023-02-15T02:50:21;7.68;;;3.80;;
74945;SDS011;63509;45.250;38.102;2023-02-15T02:52:50;8.65;;;3.90;;
74945;SDS011;63509;45.250;38.102;2023-02-15T02:58:08;8.20;;;3.92;;
74945;SDS011;63509;45.250;38.102;2023-02-15T03:00:40;8.90;;;3.47;;
74945;SDS011;63509;45.250;38.102;2023-02-15T03:06:07;7.97;;;4.25;;
74945;SDS011;63509;45.250;38.102;2023-02-15T03:08:45;8.55;;;3.78;;
74945;SDS011;63509;45.250;38.102;2023-02-15T03:11:15;10.32;;;3.65;;
74945;SDS011;63509;45.250;38.102;2023-02-15T03:13:41;8.23;;;3.83;;
74945;SDS011;63509;45.250;38.102;2023-02-15T03:16:11;11.57;;;3.95;;
74945;SDS011;63509;45.250;38.102;2023-02-15T03:18:52;12.23;;;3.13;;
74945;SDS011;63509;45.250;38.102;2023-02-15T03:22:06;7.05;;;4.00;;
74945;SDS011;63509;45.250;38.102;2023-02-15T03:24:33;9.95;;;4.15;;
74945;SDS011;63509;45.250;38.102;2023-02-15T03:27:06;7.72;;;3.50;;
74945;SDS011;63509;45.250;38.102;2023-02-15T03:29:43;11.35;;;3.72;;
74945;SDS011;63509;45.250;38.102;2023-02-15T03:32:12;13.77;;;3.58;;
74945;SDS011;63509;45.250;38.102;2023-02-15T03:34:40;8.43;;;3.88;;
74945;SDS011;63509;45.250;38.102;2023-02-15T03:37:13;16.13;;;4.15;;
74945;SDS011;63509;45.250;38.102;2023-02-15T03:39:54;11.93;;;3.58;;
74945;SDS011;63509;45.250;38.102;2023-02-15T03:42:44;13.05;;;3.70;;
74945;SDS011;63509;45.250;38.102;2023-02-15T03:47:42;6.78;;;3.53;;
74945;SDS011;63509;45.250;38.102;2023-02-15T03:50:14;6.45;;;3.67;;
74945;SDS011;63509;45.250;38.102;2023-02-15T03:53:03;8.00;;;4.07;;
74945;SDS011;63509;45.250;38.102;2023-02-15T03:55:33;7.00;;;3.50;;
74945;SDS011;63509;45.250;38.102;2023-02-15T03:58:00;5.43;;;3.17;;
74945;SDS011;63509;45.250;38.102;2023-02-15T04:00:50;9.93;;;4.70;;
74945;SDS011;63509;45.250;38.102;2023-02-15T04:03:49;8.38;;;4.32;;
74945;SDS011;63509;45.250;38.102;2023-02-15T04:06:21;10.05;;;3.58;;
74945;SDS011;63509;45.250;38.102;2023-02-15T04:08:47;10.23;;;4.38;;
74945;SDS011;63509;45.250;38.102;2023-02-15T04:11:32;10.88;;;4.15;;
74945;SDS011;63509;45.250;38.102;2023-02-15T04:13:58;9.73;;;3.50;;
74945;SDS011;63509;45.250;38.102;2023-02-15T04:16:44;7.20;;;3.30;;
74945;SDS011;63509;45.250;38.102;2023-02-15T04:19:10;8.15;;;3.75;;
74945;SDS011;63509;45.250;38.102;2023-02-15T04:21:54;7.97;;;3.97;;
74945;SDS011;63509;45.250;38.102;2023-02-15T04:24:38;7.22;;;3.97;;
74945;SDS011;63509;45.250;38.102;2023-02-15T04:27:23;8.50;;;3.78;;
74945;SDS011;63509;45.250;38.102;2023-02-15T04:29:49;6.20;;;3.80;;
74945;SDS011;63509;45.250;38.102;2023-02-15T04:32:15;10.27;;;4.75;;
74945;SDS011;63509;45.250;38.102;2023-02-15T04:34:41;8.40;;;3.70;;
74945;SDS011;63509;45.250;38.102;2023-02-15T04:37:07;7.40;;;3.65;;
74945;SDS011;63509;45.250;38.102;2023-02-15T04:39:33;9.25;;;4.40;;
74945;SDS011;63509;45.250;38.102;2023-02-15T04:41:59;10.32;;;4.75;;
74945;SDS011;63509;45.250;38.102;2023-02-15T04:44:25;8.52;;;3.83;;
74945;SDS011;63509;45.250;38.102;2023-02-15T04:46:51;12.20;;;4.50;;
74945;SDS011;63509;45.250;38.102;2023-02-15T04:49:17;10.45;;;4.38;;
74945;SDS011;63509;45.250;38.102;2023-02-15T04:51:43;7.90;;;4.80;;
74945;SDS011;63509;45.250;38.102;2023-02-15T04:54:09;10.95;;;5.18;;
74945;SDS011;63509;45.250;38.102;2023-02-15T04:56:35;10.50;;;5.72;;
74945;SDS011;63509;45.250;38.102;2023-02-15T04:59:02;7.65;;;4.85;;
74945;SDS011;63509;45.250;38.102;2023-02-15T05:01:29;11.80;;;5.30;;
74945;SDS011;63509;45.250;38.102;2023-02-15T05:03:55;8.43;;;4.57;;
74945;SDS011;63509;45.250;38.102;2023-02-15T05:06:21;13.68;;;4.78;;
74945;SDS011;63509;45.250;38.102;2023-02-15T05:08:47;11.93;;;5.35;;
74945;SDS011;63509;45.250;38.102;2023-02-15T05:11:13;7.32;;;4.65;;
74945;SDS011;63509;45.250;38.102;2023-02-15T05:13:39;12.57;;;5.63;;
74945;SDS011;63509;45.250;38.102;2023-02-15T05:16:05;10.43;;;4.85;;
74945;SDS011;63509;45.250;38.102;2023-02-15T05:18:31;9.02;;;4.72;;
74945;SDS011;63509;45.250;38.102;2023-02-15T05:20:57;10.88;;;5.15;;
74945;SDS011;63509;45.250;38.102;2023-02-15T05:23:23;13.98;;;4.97;;
74945;SDS011;63509;45.250;38.102;2023-02-15T05:25:49;8.05;;;4.25;;
74945;SDS011;63509;45.250;38.102;2023-02-15T05:28:35;7.93;;;4.60;;
74945;SDS011;63509;45.250;38.102;2023-02-15T05:33:30;6.85;;;3.67;;
74945;SDS011;63509;45.250;38.102;2023-02-15T05:35:57;10.20;;;4.00;;
74945;SDS011;63509;45.250;38.102;2023-02-15T05:38:23;10.32;;;4.03;;
74945;SDS011;63509;45.250;38.102;2023-02-15T05:40:52;9.50;;;4.13;;
74945;SDS011;63509;45.250;38.102;2023-02-15T05:43:19;9.18;;;3.45;;
74945;SDS011;63509;45.250;38.102;2023-02-15T05:45:46;9.98;;;3.45;;
74945;SDS011;63509;45.250;38.102;2023-02-15T05:48:17;9.27;;;3.22;;
74945;SDS011;63509;45.250;38.102;2023-02-15T05:50:43;8.77;;;3.30;;
74945;SDS011;63509;45.250;38.102;2023-02-15T05:53:10;6.90;;;2.78;;
74945;SDS011;63509;45.250;38.102;2023-02-15T05:55:39;6.45;;;3.58;;
74945;SDS011;63509;45.250;38.102;2023-02-15T05:58:06;6.47;;;2.95;;
74945;SDS011;63509;45.250;38.102;2023-02-15T06:00:33;9.38;;;3.72;;
74945;SDS011;63509;45.250;38.102;2023-02-15T06:03:00;9.10;;;3.95;;
74945;SDS011;63509;45.250;38.102;2023-02-15T06:05:26;7.10;;;2.85;;
74945;SDS011;63509;45.250;38.102;2023-02-15T06:07:52;7.82;;;3.72;;
74945;SDS011;63509;45.250;38.102;2023-02-15T06:10:18;5.45;;;3.03;;
74945;SDS011;63509;45.250;38.102;2023-02-15T06:12:44;6.72;;;3.67;;
74945;SDS011;63509;45.250;38.102;2023-02-15T06:15:10;9.55;;;3.67;;
74945;SDS011;63509;45.250;38.102;2023-02-15T06:17:36;8.77;;;4.05;;
74945;SDS011;63509;45.250;38.102;2023-02-15T06:20:02;11.18;;;4.82;;
74945;SDS011;63509;45.250;38.102;2023-02-15T06:22:29;13.32;;;4.03;;
74945;SDS011;63509;45.250;38.102;2023-02-15T06:24:55;7.72;;;3.92;;
74945;SDS011;63509;45.250;38.102;2023-02-15T06:27:21;7.90;;;3.08;;
74945;SDS011;63509;45.250;38.102;2023-02-15T06:29:47;6.47;;;3.80;;
74945;SDS011;63509;45.250;38.102;2023-02-15T06:32:13;7.22;;;3.40;;
74945;SDS011;63509;45.250;38.102;2023-02-15T06:34:39;7.90;;;3.10;;
74945;SDS011;63509;45.250;38.102;2023-02-15T06:37:05;6.20;;;3.38;;
74945;SDS011;63509;45.250;38.102;2023-02-15T06:39:33;7.22;;;3.50;;
74945;SDS011;63509;45.250;38.102;2023-02-15T06:41:59;6.43;;;3.70;;
74945;SDS011;63509;45.250;38.102;2023-02-15T06:44:25;9.07;;;4.45;;
74945;SDS011;63509;45.250;38.102;2023-02-15T06:46:51;10.55;;;3.97;;
74945;SDS011;63509;45.250;38.102;2023-02-15T06:49:17;8.88;;;3.67;;
74945;SDS011;63509;45.250;38.102;2023-02-15T06:51:44;7.68;;;3.47;;
74945;SDS011;63509;45.250;38.102;2023-02-15T06:54:09;6.55;;;3.58;;
74945;SDS011;63509;45.250;38.102;2023-02-15T06:56:36;8.60;;;4.20;;
74945;SDS011;63509;45.250;38.102;2023-02-15T06:59:02;6.95;;;4.05;;
74945;SDS011;63509;45.250;38.102;2023-02-15T07:01:28;7.03;;;3.45;;
74945;SDS011;63509;45.250;38.102;2023-02-15T07:03:54;8.98;;;3.63;;
74945;SDS011;63509;45.250;38.102;2023-02-15T07:06:20;12.60;;;4.10;;
74945;SDS011;63509;45.250;38.102;2023-02-15T07:08:47;11.13;;;4.25;;
74945;SDS011;63509;45.250;38.102;2023-02-15T07:11:13;11.52;;;5.68;;
74945;SDS011;63509;45.250;38.102;2023-02-15T07:13:57;7.63;;;4.10;;
74945;SDS011;63509;45.250;38.102;2023-02-15T07:16:23;11.18;;;5.90;;
74945;SDS011;63509;45.250;38.102;2023-02-15T07:18:49;13.63;;;6.28;;
74945;SDS011;63509;45.250;38.102;2023-02-15T07:21:15;8.88;;;4.95;;
74945;SDS011;63509;45.250;38.102;2023-02-15T07:23:41;9.18;;;4.95;;
74945;SDS011;63509;45.250;38.102;2023-02-15T07:26:07;8.70;;;4.60;;
74945;SDS011;63509;45.250;38.102;2023-02-15T07:28:34;11.32;;;6.13;;
74945;SDS011;63509;45.250;38.102;2023-02-15T07:31:01;7.03;;;3.92;;
74945;SDS011;63509;45.250;38.102;2023-02-15T07:33:30;6.22;;;3.80;;
74945;SDS011;63509;45.250;38.102;2023-02-15T07:35:58;10.18;;;3.90;;
74945;SDS011;63509;45.250;38.102;2023-02-15T07:38:26;8.10;;;3.40;;
74945;SDS011;63509;45.250;38.102;2023-02-15T07:40:57;7.68;;;4.03;;
74945;SDS011;63509;45.250;38.102;2023-02-15T07:43:24;6.78;;;3.03;;
74945;SDS011;63509;45.250;38.102;2023-02-15T07:45:50;8.25;;;4.18;;
74945;SDS011;63509;45.250;38.102;2023-02-15T07:48:17;7.13;;;3.40;;
74945;SDS011;63509;45.250;38.102;2023-02-15T07:50:43;6.18;;;3.25;;
74945;SDS011;63509;45.250;38.102;2023-02-15T07:53:09;7.57;;;3.58;;
74945;SDS011;63509;45.250;38.102;2023-02-15T07:55:35;6.90;;;3.25;;
74945;SDS011;63509;45.250;38.102;2023-02-15T07:58:02;4.93;;;2.80;;
74945;SDS011;63509;45.250;38.102;2023-02-15T08:00:28;6.40;;;4.10;;
74945;SDS011;63509;45.250;38.102;2023-02-15T08:02:55;11.50;;;4.18;;
74945;SDS011;63509;45.250;38.102;2023-02-15T08:05:40;8.63;;;3.97;;
74945;SDS011;63509;45.250;38.102;2023-02-15T08:08:07;5.63;;;3.22;;
74945;SDS011;63509;45.250;38.102;2023-02-15T08:11:01;4.75;;;3.45;;
74945;SDS011;63509;45.250;38.102;2023-02-15T08:13:49;6.28;;;3.78;;
74945;SDS011;63509;45.250;38.102;2023-02-15T08:16:31;5.80;;;3.38;;
74945;SDS011;63509;45.250;38.102;2023-02-15T08:19:02;5.68;;;2.95;;
74945;SDS011;63509;45.250;38.102;2023-02-15T08:21:32;6.35;;;3.22;;
74945;SDS011;63509;45.250;38.102;2023-02-15T08:23:59;5.40;;;2.75;;
74945;SDS011;63509;45.250;38.102;2023-02-15T08:26:25;6.50;;;2.95;;
74945;SDS011;63509;45.250;38.102;2023-02-15T08:28:53;7.35;;;3.72;;
74945;SDS011;63509;45.250;38.102;2023-02-15T08:31:19;5.57;;;3.53;;
74945;SDS011;63509;45.250;38.102;2023-02-15T08:33:46;6.13;;;3.65;;
74945;SDS011;63509;45.250;38.102;2023-02-15T08:36:15;5.65;;;3.45;;
74945;SDS011;63509;45.250;38.102;2023-02-15T08:43:47;6.03;;;2.50;;
74945;SDS011;63509;45.250;38.102;2023-02-15T08:46:22;4.90;;;2.90;;
74945;SDS011;63509;45.250;38.102;2023-02-15T08:48:50;7.35;;;3.40;;
74945;SDS011;63509;45.250;38.102;2023-02-15T08:51:18;8.32;;;2.58;;
74945;SDS011;63509;45.250;38.102;2023-02-15T08:53:47;5.90;;;2.97;;
74945;SDS011;63509;45.250;38.102;2023-02-15T08:56:14;3.70;;;2.10;;
74945;SDS011;63509;45.250;38.102;2023-02-15T08:58:42;5.45;;;2.22;;
74945;SDS011;63509;45.250;38.102;2023-02-15T09:01:12;5.32;;;2.08;;
74945;SDS011;63509;45.250;38.102;2023-02-15T09:03:47;7.32;;;2.28;;
74945;SDS011;63509;45.250;38.102;2023-02-15T09:06:16;5.07;;;2.45;;
74945;SDS011;63509;45.250;38.102;2023-02-15T09:08:42;6.65;;;3.13;;
74945;SDS011;63509;45.250;38.102;2023-02-15T09:16:21;16.55;;;2.42;;
74945;SDS011;63509;45.250;38.102;2023-02-15T09:18:50;8.68;;;2.00;;
74945;SDS011;63509;45.250;38.102;2023-02-15T09:21:19;4.15;;;1.88;;
74945;SDS011;63509;45.250;38.102;2023-02-15T09:23:47;7.45;;;1.88;;
74945;SDS011;63509;45.250;38.102;2023-02-15T09:26:21;5.00;;;1.83;;
74945;SDS011;63509;45.250;38.102;2023-02-15T09:28:51;3.75;;;1.55;;
74945;SDS011;63509;45.250;38.102;2023-02-15T09:31:20;6.63;;;1.92;;
74945;SDS011;63509;45.250;38.102;2023-02-15T09:33:48;5.55;;;1.95;;
74945;SDS011;63509;45.250;38.102;2023-02-15T09:36:19;8.68;;;1.48;;
74945;SDS011;63509;45.250;38.102;2023-02-15T09:38:48;3.97;;;1.10;;
74945;SDS011;63509;45.250;38.102;2023-02-15T09:44:42;3.33;;;1.45;;
74945;SDS011;63509;45.250;38.102;2023-02-15T10:01:17;3.38;;;1.00;;
74945;SDS011;63509;45.250;38.102;2023-02-15T10:07:33;3.70;;;1.17;;
74945;SDS011;63509;45.250;38.102;2023-02-15T10:09:54;6.00;;;1.52;;
74945;SDS011;63509;45.250;38.102;2023-02-15T10:24:34;5.53;;;1.92;;
74945;SDS011;63509;45.250;38.102;2023-02-15T10:34:18;4.95;;;2.28;;
74945;SDS011;63509;45.250;38.102;2023-02-15T10:39:43;4.45;;;2.33;;
74945;SDS011;63509;45.250;38.102;2023-02-15T10:42:20;3.13;;;1.60;;
74945;SDS011;63509;45.250;38.102;2023-02-15T10:45:09;3.67;;;1.85;;
74945;SDS011;63509;45.250;38.102;2023-02-15T10:55:50;6.68;;;2.03;;
74945;SDS011;63509;45.250;38.102;2023-02-15T10:58:29;9.15;;;2.47;;
74945;SDS011;63509;45.250;38.102;2023-02-15T11:06:26;6.22;;;2.15;;
74945;SDS011;63509;45.250;38.102;2023-02-15T11:08:57;8.82;;;2.78;;
74945;SDS011;63509;45.250;38.102;2023-02-15T11:11:35;8.23;;;2.53;;
74945;SDS011;63509;45.250;38.102;2023-02-15T11:17:13;6.47;;;1.95;;
74945;SDS011;63509;45.250;38.102;2023-02-15T11:22:35;6.45;;;2.03;;
74945;SDS011;63509;45.250;38.102;2023-02-15T11:25:02;5.32;;;2.38;;
74945;SDS011;63509;45.250;38.102;2023-02-15T11:27:41;5.13;;;2.33;;
74945;SDS011;63509;45.250;38.102;2023-02-15T11:30:10;5.72;;;2.17;;
74945;SDS011;63509;45.250;38.102;2023-02-15T11:32:40;9.30;;;2.75;;
74945;SDS011;63509;45.250;38.102;2023-02-15T11:40:34;4.85;;;2.17;;
74945;SDS011;63509;45.250;38.102;2023-02-15T11:45:45;4.80;;;2.67;;
74945;SDS011;63509;45.250;38.102;2023-02-15T11:48:12;4.30;;;2.20;;
74945;SDS011;63509;45.250;38.102;2023-02-15T11:50:40;11.13;;;3.30;;
74945;SDS011;63509;45.250;38.102;2023-02-15T11:55:36;3.20;;;1.95;;
74945;SDS011;63509;45.250;38.102;2023-02-15T12:03:45;4.95;;;2.50;;
74945;SDS011;63509;45.250;38.102;2023-02-15T12:06:30;6.63;;;2.65;;
74945;SDS011;63509;45.250;38.102;2023-02-15T12:11:38;4.72;;;2.53;;
74945;SDS011;63509;45.250;38.102;2023-02-15T12:14:07;3.90;;;2.40;;
74945;SDS011;63509;45.250;38.102;2023-02-15T12:19:13;4.65;;;2.33;;
74945;SDS011;63509;45.250;38.102;2023-02-15T12:22:00;6.20;;;2.47;;
74945;SDS011;63509;45.250;38.102;2023-02-15T12:27:05;4.35;;;2.55;;
74945;SDS011;63509;45.250;38.102;2023-02-15T12:30:00;4.68;;;2.17;;
74945;SDS011;63509;45.250;38.102;2023-02-15T12:32:47;7.85;;;2.55;;
74945;SDS011;63509;45.250;38.102;2023-02-15T12:35:29;5.95;;;3.17;;
74945;SDS011;63509;45.250;38.102;2023-02-15T12:38:02;5.15;;;2.55;;
74945;SDS011;63509;45.250;38.102;2023-02-15T12:40:32;6.78;;;3.17;;
74945;SDS011;63509;45.250;38.102;2023-02-15T12:42:59;7.22;;;2.70;;
74945;SDS011;63509;45.250;38.102;2023-02-15T12:45:32;7.45;;;2.72;;
74945;SDS011;63509;45.250;38.102;2023-02-15T12:50:38;6.35;;;2.80;;
74945;SDS011;63509;45.250;38.102;2023-02-15T12:53:22;7.22;;;3.80;;
74945;SDS011;63509;45.250;38.102;2023-02-15T12:55:59;7.03;;;3.33;;
74945;SDS011;63509;45.250;38.102;2023-02-15T12:58:28;6.20;;;2.70;;
74945;SDS011;63509;45.250;38.102;2023-02-15T13:01:15;5.43;;;3.03;;
74945;SDS011;63509;45.250;38.102;2023-02-15T13:04:01;7.80;;;2.60;;
74945;SDS011;63509;45.250;38.102;2023-02-15T13:06:31;6.18;;;2.85;;
74945;SDS011;63509;45.250;38.102;2023-02-15T13:09:11;4.80;;;3.08;;
74945;SDS011;63509;45.250;38.102;2023-02-15T13:11:43;5.65;;;2.65;;
74945;SDS011;63509;45.250;38.102;2023-02-15T13:17:08;8.65;;;2.83;;
74945;SDS011;63509;45.250;38.102;2023-02-15T13:19:37;5.65;;;2.40;;
74945;SDS011;63509;45.250;38.102;2023-02-15T13:22:18;9.10;;;2.38;;
74945;SDS011;63509;45.250;38.102;2023-02-15T13:24:50;8.75;;;3.35;;
74945;SDS011;63509;45.250;38.102;2023-02-15T13:27:22;4.40;;;2.45;;
74945;SDS011;63509;45.250;38.102;2023-02-15T13:30:02;4.22;;;2.42;;
74945;SDS011;63509;45.250;38.102;2023-02-15T13:32:48;8.27;;;2.80;;
74945;SDS011;63509;45.250;38.102;2023-02-15T13:35:17;6.88;;;2.70;;
74945;SDS011;63509;45.250;38.102;2023-02-15T13:40:55;6.18;;;2.72;;
74945;SDS011;63509;45.250;38.102;2023-02-15T13:51:42;6.28;;;2.83;;
74945;SDS011;63509;45.250;38.102;2023-02-15T14:19:45;7.30;;;2.75;;
74945;SDS011;63509;45.250;38.102;2023-02-15T14:25:34;5.45;;;2.53;;
74945;SDS011;63509;45.250;38.102;2023-02-15T14:31:09;7.97;;;2.53;;
74945;SDS011;63509;45.250;38.102;2023-02-15T14:33:38;4.97;;;2.60;;
74945;SDS011;63509;45.250;38.102;2023-02-15T14:36:08;6.03;;;2.58;;
74945;SDS011;63509;45.250;38.102;2023-02-15T14:42:34;9.88;;;2.58;;
74945;SDS011;63509;45.250;38.102;2023-02-15T14:48:09;7.10;;;2.83;;
74945;SDS011;63509;45.250;38.102;2023-02-15T14:50:46;4.75;;;2.75;;
74945;SDS011;63509;45.250;38.102;2023-02-15T14:53:25;10.48;;;3.55;;
74945;SDS011;63509;45.250;38.102;2023-02-15T15:01:25;8.82;;;2.30;;
74945;SDS011;63509;45.250;38.102;2023-02-15T15:03:53;4.63;;;2.30;;
74945;SDS011;63509;45.250;38.102;2023-02-15T15:06:24;6.85;;;2.67;;
74945;SDS011;63509;45.250;38.102;2023-02-15T15:08:55;7.90;;;2.90;;
74945;SDS011;63509;45.250;38.102;2023-02-15T15:11:43;7.10;;;2.67;;
74945;SDS011;63509;45.250;38.102;2023-02-15T15:17:02;7.22;;;3.70;;
74945;SDS011;63509;45.250;38.102;2023-02-15T15:22:18;10.95;;;4.93;;
74945;SDS011;63509;45.250;38.102;2023-02-15T15:24:54;14.48;;;5.07;;
74945;SDS011;63509;45.250;38.102;2023-02-15T15:43:47;3.85;;;1.92;;
74945;SDS011;63509;45.250;38.102;2023-02-15T15:49:21;5.95;;;2.47;;
74945;SDS011;63509;45.250;38.102;2023-02-15T15:51:52;4.95;;;1.90;;
74945;SDS011;63509;45.250;38.102;2023-02-15T15:54:19;4.43;;;2.17;;
74945;SDS011;63509;45.250;38.102;2023-02-15T15:57:05;7.97;;;3.03;;
74945;SDS011;63509;45.250;38.102;2023-02-15T15:59:56;4.57;;;1.92;;
74945;SDS011;63509;45.250;38.102;2023-02-15T16:02:26;4.68;;;1.80;;
74945;SDS011;63509;45.250;38.102;2023-02-15T16:04:53;5.07;;;2.08;;
74945;SDS011;63509;45.250;38.102;2023-02-15T16:07:31;4.45;;;1.80;;
74945;SDS011;63509;45.250;38.102;2023-02-15T16:12:26;4.28;;;1.80;;
74945;SDS011;63509;45.250;38.102;2023-02-15T16:14:54;10.82;;;2.20;;
74945;SDS011;63509;45.250;38.102;2023-02-15T16:17:26;4.47;;;2.10;;
74945;SDS011;63509;45.250;38.102;2023-02-15T16:20:02;3.85;;;1.85;;
74945;SDS011;63509;45.250;38.102;2023-02-15T16:22:39;11.77;;;2.45;;
74945;SDS011;63509;45.250;38.102;2023-02-15T16:27:43;4.38;;;2.08;;
74945;SDS011;63509;45.250;38.102;2023-02-15T16:30:31;8.95;;;1.73;;
74945;SDS011;63509;45.250;38.102;2023-02-15T16:35:37;4.55;;;1.98;;
74945;SDS011;63509;45.250;38.102;2023-02-15T16:38:05;3.60;;;2.35;;
74945;SDS011;63509;45.250;38.102;2023-02-15T16:43:30;6.15;;;2.55;;
74945;SDS011;63509;45.250;38.102;2023-02-15T16:46:05;5.80;;;1.92;;
74945;SDS011;63509;45.250;38.102;2023-02-15T16:48:39;4.55;;;1.65;;
74945;SDS011;63509;45.250;38.102;2023-02-15T16:51:08;4.40;;;1.85;;
74945;SDS011;63509;45.250;38.102;2023-02-15T16:53:35;5.50;;;2.42;;
74945;SDS011;63509;45.250;38.102;2023-02-15T16:56:03;3.95;;;1.98;;
74945;SDS011;63509;45.250;38.102;2023-02-15T16:58:36;3.95;;;1.73;;
74945;SDS011;63509;45.250;38.102;2023-02-15T17:01:03;6.28;;;1.88;;
74945;SDS011;63509;45.250;38.102;2023-02-15T17:03:33;5.72;;;2.05;;
74945;SDS011;63509;45.250;38.102;2023-02-15T17:06:00;3.30;;;1.77;;
74945;SDS011;63509;45.250;38.102;2023-02-15T17:08:28;4.05;;;1.65;;
74945;SDS011;63509;45.250;38.102;2023-02-15T17:11:02;7.70;;;2.00;;
74945;SDS011;63509;45.250;38.102;2023-02-15T17:13:33;6.75;;;1.65;;
74945;SDS011;63509;45.250;38.102;2023-02-15T17:18:34;3.65;;;1.40;;
74945;SDS011;63509;45.250;38.102;2023-02-15T17:21:16;3.00;;;1.25;;
74945;SDS011;63509;45.250;38.102;2023-02-15T17:23:48;2.22;;;1.10;;
74945;SDS011;63509;45.250;38.102;2023-02-15T17:26:24;4.40;;;1.83;;
74945;SDS011;63509;45.250;38.102;2023-02-15T17:28:57;5.03;;;2.28;;
74945;SDS011;63509;45.250;38.102;2023-02-15T17:31:28;7.40;;;2.50;;
74945;SDS011;63509;45.250;38.102;2023-02-15T17:34:00;5.97;;;2.53;;
74945;SDS011;63509;45.250;38.102;2023-02-15T17:36:30;6.70;;;2.40;;
74945;SDS011;63509;45.250;38.102;2023-02-15T17:41:26;2.97;;;1.50;;
74945;SDS011;63509;45.250;38.102;2023-02-15T17:43:52;7.78;;;1.90;;
74945;SDS011;63509;45.250;38.102;2023-02-15T17:46:19;3.03;;;1.65;;
74945;SDS011;63509;45.250;38.102;2023-02-15T17:48:52;4.22;;;1.42;;
74945;SDS011;63509;45.250;38.102;2023-02-15T17:51:20;3.75;;;1.30;;
74945;SDS011;63509;45.250;38.102;2023-02-15T17:53:46;2.95;;;1.27;;
74945;SDS011;63509;45.250;38.102;2023-02-15T17:56:32;2.38;;;1.25;;
74945;SDS011;63509;45.250;38.102;2023-02-15T17:58:59;2.35;;;0.98;;
74945;SDS011;63509;45.250;38.102;2023-02-15T18:01:25;3.28;;;1.00;;
74945;SDS011;63509;45.250;38.102;2023-02-15T18:04:13;4.57;;;1.75;;
74945;SDS011;63509;45.250;38.102;2023-02-15T18:06:58;4.57;;;1.40;;
74945;SDS011;63509;45.250;38.102;2023-02-15T18:09:43;3.20;;;1.88;;
74945;SDS011;63509;45.250;38.102;2023-02-15T18:12:31;2.15;;;1.15;;
74945;SDS011;63509;45.250;38.102;2023-02-15T18:15:04;4.07;;;1.55;;
74945;SDS011;63509;45.250;38.102;2023-02-15T18:17:35;4.53;;;1.50;;
74945;SDS011;63509;45.250;38.102;2023-02-15T18:20:19;7.20;;;1.60;;
74945;SDS011;63509;45.250;38.102;2023-02-15T18:22:49;4.38;;;1.67;;
74945;SDS011;63509;45.250;38.102;2023-02-15T18:25:17;3.40;;;1.48;;
74945;SDS011;63509;45.250;38.102;2023-02-15T18:27:46;3.40;;;1.00;;
74945;SDS011;63509;45.250;38.102;2023-02-15T18:30:19;2.33;;;1.33;;
74945;SDS011;63509;45.250;38.102;2023-02-15T18:32:47;1.85;;;1.08;;
74945;SDS011;63509;45.250;38.102;2023-02-15T18:35:17;2.28;;;1.20;;
74945;SDS011;63509;45.250;38.102;2023-02-15T18:37:46;2.80;;;1.38;;
74945;SDS011;63509;45.250;38.102;2023-02-15T18:40:18;3.13;;;1.38;;
74945;SDS011;63509;45.250;38.102;2023-02-15T18:42:46;5.53;;;1.15;;
74945;SDS011;63509;45.250;38.102;2023-02-15T18:45:18;3.10;;;1.42;;
74945;SDS011;63509;45.250;38.102;2023-02-15T18:47:46;3.15;;;0.93;;